Time;durP1;ratioP1;P1;durP2;ratioP2;P2;SDS_P1;SDS_P2;PMS_P1;PMS_P2;Temp;Humidity;BMP_temperature;BMP_pressure;BME280_temperature;BME280_humidity;BME280_pressure;Samples;Min_cycle;Max_cycle;Signal;HPM_P1;HPM_P2
2021/04/29 00:02:10;;;;;;;13.72;9.10;;;;;;;2.84;61.12;100633.22;1763995;79;22074;-73
2021/04/29 00:04:38;;;;;;;13.05;9.38;;;;;;;2.84;61.19;100633.68;1780910;79;21122;-73
2021/04/29 00:07:06;;;;;;;13.10;8.75;;;;;;;2.80;61.28;100636.05;1746546;80;21105;-73
2021/04/29 00:09:35;;;;;;;11.80;8.30;;;;;;;2.76;61.29;100634.01;1774725;79;21378;-73
2021/04/29 00:12:05;;;;;;;13.38;7.92;;;;;;;2.74;61.46;100631.92;1758041;80;21065;-73
2021/04/29 00:14:33;;;;;;;11.70;7.70;;;;;;;2.72;61.54;100633.77;1782746;79;22166;-75
2021/04/29 00:17:01;;;;;;;11.53;7.25;;;;;;;2.71;61.57;100629.92;1781751;79;21712;-73
2021/04/29 00:19:29;;;;;;;12.00;6.97;;;;;;;2.67;61.73;100626.58;1799096;78;21120;-72
2021/04/29 00:21:56;;;;;;;12.37;7.40;;;;;;;2.63;61.77;100626.78;1773877;79;21449;-72
2021/04/29 00:24:24;;;;;;;10.68;7.12;;;;;;;2.56;61.95;100626.19;1774337;80;21169;-72
2021/04/29 00:26:52;;;;;;;10.95;7.60;;;;;;;2.49;62.10;100629.95;1760916;78;22065;-72
2021/04/29 00:29:19;;;;;;;12.40;7.08;;;;;;;2.41;62.28;100627.66;1790714;78;21149;-72
2021/04/29 00:31:47;;;;;;;15.08;7.35;;;;;;;2.36;62.47;100627.48;1791028;78;21114;-72
2021/04/29 00:34:15;;;;;;;10.03;7.20;;;;;;;2.29;62.62;100629.48;1784093;78;21253;-72
2021/04/29 00:36:43;;;;;;;12.00;7.90;;;;;;;2.25;62.83;100624.02;1803998;78;21125;-72
2021/04/29 00:39:11;;;;;;;12.80;7.60;;;;;;;2.19;63.02;100623.80;1776139;80;22070;-74
2021/04/29 00:41:39;;;;;;;12.45;7.83;;;;;;;2.13;63.14;100624.07;1797868;78;21632;-73
2021/04/29 00:44:06;;;;;;;14.45;8.25;;;;;;;2.11;63.20;100621.11;1798319;78;21472;-72
2021/04/29 00:46:36;;;;;;;12.00;7.97;;;;;;;2.07;63.44;100619.09;1782898;79;21871;-72
2021/04/29 00:49:04;;;;;;;11.48;7.70;;;;;;;2.03;63.62;100618.84;1768894;80;21073;-75
2021/04/29 00:51:32;;;;;;;13.35;8.00;;;;;;;2.00;63.77;100618.48;1778510;80;22057;-72
2021/04/29 00:54:01;;;;;;;13.18;8.03;;;;;;;1.97;63.98;100622.53;1768569;79;21125;-74
2021/04/29 00:56:28;;;;;;;13.08;8.48;;;;;;;1.92;64.15;100625.75;1782079;79;21144;-74
2021/04/29 00:58:58;;;;;;;13.10;7.67;;;;;;;1.89;64.37;100622.44;1795863;78;21544;-75
2021/04/29 01:01:25;;;;;;;13.25;8.28;;;;;;;1.88;64.48;100620.73;1812125;78;21121;-74
2021/04/29 01:04:09;;;;;;;14.23;8.98;;;;;;;1.85;64.63;100623.48;1810530;78;22023;-74
2021/04/29 01:07:06;;;;;;;15.70;9.18;;;;;;;1.82;64.74;100622.27;1760591;79;21592;-73
2021/04/29 01:09:40;;;;;;;14.25;9.13;;;;;;;1.79;64.92;100618.50;1794419;78;21356;-71
2021/04/29 01:12:16;;;;;;;14.35;9.90;;;;;;;1.75;65.10;100620.39;1782635;78;21090;-73
2021/04/29 01:14:45;;;;;;;15.83;9.90;;;;;;;1.72;65.19;100623.09;1792545;78;21113;-73
2021/04/29 01:17:13;;;;;;;15.90;10.10;;;;;;;1.68;65.35;100625.43;1765989;78;22820;-75
2021/04/29 01:19:44;;;;;;;14.20;9.95;;;;;;;1.64;65.51;100622.11;1774056;79;21387;-73
2021/04/29 01:22:14;;;;;;;15.85;9.93;;;;;;;1.60;65.63;100623.11;1793417;79;21099;-73
2021/04/29 01:24:49;;;;;;;15.08;10.25;;;;;;;1.59;65.67;100625.33;1787497;78;21333;-73
2021/04/29 01:27:17;;;;;;;16.82;10.95;;;;;;;1.58;65.68;100621.48;1797943;78;21163;-73
2021/04/29 01:29:45;;;;;;;16.87;11.18;;;;;;;1.55;65.84;100619.02;1807138;78;22061;-73
2021/04/29 01:32:12;;;;;;;17.35;10.75;;;;;;;1.54;65.99;100619.44;1793553;78;21165;-73
2021/04/29 01:34:41;;;;;;;14.58;10.03;;;;;;;1.49;66.17;100612.27;1782180;79;21478;-72
2021/04/29 01:37:09;;;;;;;16.45;10.50;;;;;;;1.47;66.34;100608.03;1804128;78;21137;-74
2021/04/29 01:39:37;;;;;;;15.30;10.38;;;;;;;1.41;66.51;100607.34;1789444;78;21167;-73
2021/04/29 01:42:05;;;;;;;16.62;10.32;;;;;;;1.38;66.65;100607.48;1758165;79;22135;-73
2021/04/29 01:44:34;;;;;;;14.70;9.95;;;;;;;1.35;66.70;100608.91;1803022;78;21053;-73
2021/04/29 01:47:03;;;;;;;16.23;10.55;;;;;;;1.34;66.80;100603.73;1767600;78;21054;-72
2021/04/29 01:49:31;;;;;;;15.10;10.25;;;;;;;1.32;66.90;100605.55;1799517;78;21069;-72
2021/04/29 01:51:58;;;;;;;16.93;11.15;;;;;;;1.32;67.03;100605.55;1770745;78;21049;-75
2021/04/29 01:54:27;;;;;;;15.23;10.53;;;;;;;1.31;67.20;100610.36;1797167;78;22816;-73
2021/04/29 01:56:55;;;;;;;20.08;12.15;;;;;;;1.29;67.27;100606.97;1768197;79;21121;-78
2021/04/29 01:59:22;;;;;;;22.22;13.72;;;;;;;1.28;67.26;100605.28;1780120;79;21114;-72
2021/04/29 02:01:50;;;;;;;21.82;14.33;;;;;;;1.24;67.27;100608.42;1794992;78;21109;-74
2021/04/29 02:04:18;;;;;;;21.85;13.35;;;;;;;1.21;67.38;100611.16;1783562;79;21093;-73
2021/04/29 02:06:47;;;;;;;22.50;14.38;;;;;;;1.20;67.52;100608.16;1799287;78;21768;-74
2021/04/29 02:09:16;;;;;;;23.47;14.18;;;;;;;1.18;67.60;100611.28;1784884;78;21175;-71
2021/04/29 02:12:02;;;;;;;20.82;13.45;;;;;;;1.16;67.66;100614.39;1791576;78;21077;-73
2021/04/29 02:14:44;;;;;;;18.98;12.35;;;;;;;1.14;67.78;100608.38;1798217;79;21062;-72
2021/04/29 02:17:30;;;;;;;21.48;13.08;;;;;;;1.13;67.88;100617.09;1769239;78;21048;-72
2021/04/29 02:19:57;;;;;;;17.65;12.18;;;;;;;1.10;67.99;100611.55;1778515;79;22028;-71
2021/04/29 02:22:25;;;;;;;20.08;12.50;;;;;;;1.10;68.11;100617.20;1781043;79;21347;-72
2021/04/29 02:24:57;;;;;;;16.77;11.80;;;;;;;1.09;68.19;100613.77;1775929;79;21170;-72
2021/04/29 02:27:24;;;;;;;16.93;11.53;;;;;;;1.11;68.25;100622.35;1813658;78;21117;-73
2021/04/29 02:29:51;;;;;;;16.75;11.53;;;;;;;1.11;68.27;100618.45;1779914;78;21144;-73
2021/04/29 02:32:19;;;;;;;18.30;11.83;;;;;;;1.12;68.37;100618.00;1799651;78;22071;-72
2021/04/29 02:34:47;;;;;;;21.15;13.08;;;;;;;1.11;68.52;100617.15;1768416;79;21153;-72
2021/04/29 02:37:14;;;;;;;15.80;12.05;;;;;;;1.12;68.59;100616.24;1755484;80;21074;-73
2021/04/29 02:39:41;;;;;;;13.75;11.08;;;;;;;1.13;68.63;100619.23;1787306;79;21053;-71
2021/04/29 02:42:11;;;;;;;13.75;10.20;;;;;;;1.13;68.71;100620.53;1765258;79;21630;-70
2021/04/29 02:44:39;;;;;;;14.85;10.72;;;;;;;1.11;68.84;100617.60;1766455;79;22060;-70
2021/04/29 02:47:06;;;;;;;15.48;10.08;;;;;;;1.09;68.97;100617.66;1770511;80;21585;-71
2021/04/29 02:49:34;;;;;;;14.43;11.53;;;;;;;1.07;69.07;100619.48;1796941;78;21189;-70
2021/04/29 02:52:01;;;;;;;16.97;12.03;;;;;;;1.07;69.24;100614.28;1811912;78;21078;-71
2021/04/29 02:54:31;;;;;;;17.07;12.20;;;;;;;1.11;69.41;100611.95;1813183;78;21053;-72
2021/04/29 02:56:58;;;;;;;15.08;11.93;;;;;;;1.16;69.47;100607.89;1813123;78;21968;-71
2021/04/29 02:59:27;;;;;;;16.90;11.70;;;;;;;1.21;69.47;100611.61;1801398;78;21173;-71
2021/04/29 03:01:54;;;;;;;16.90;12.15;;;;;;;1.20;69.51;100615.12;1767647;80;21552;-71
2021/04/29 03:04:21;;;;;;;15.43;11.70;;;;;;;1.21;69.54;100615.05;1802019;78;21075;-72
2021/04/29 03:06:49;;;;;;;15.50;11.40;;;;;;;1.24;69.71;100615.39;1802680;78;21643;-70
2021/04/29 03:09:18;;;;;;;14.13;11.20;;;;;;;1.24;69.84;100615.39;1798078;78;22641;-77
2021/04/29 03:11:48;;;;;;;14.58;12.05;;;;;;;1.23;69.99;100615.00;1799844;78;21101;-76
2021/04/29 03:14:16;;;;;;;16.73;12.45;;;;;;;1.22;70.04;100614.15;1802247;78;21207;-76
2021/04/29 03:16:43;;;;;;;17.27;12.20;;;;;;;1.25;70.13;100610.58;1791781;78;21119;-78
2021/04/29 03:19:11;;;;;;;15.78;11.35;;;;;;;1.28;70.15;100609.18;1770604;80;21149;-78
2021/04/29 03:21:38;;;;;;;18.30;11.83;;;;;;;1.30;70.24;100612.11;1788289;79;22525;-78
2021/04/29 03:24:07;;;;;;;14.65;11.18;;;;;;;1.33;70.35;100615.05;1770140;79;21148;-78
2021/04/29 03:26:36;;;;;;;15.30;11.65;;;;;;;1.37;70.44;100619.25;1776795;79;21038;-78
2021/04/29 03:29:04;;;;;;;15.45;12.05;;;;;;;1.41;70.51;100616.45;1762804;79;21068;-77
2021/04/29 03:31:32;;;;;;;17.82;11.80;;;;;;;1.48;70.54;100618.39;1766566;79;21045;-75
2021/04/29 03:34:00;;;;;;;16.30;13.20;;;;;;;1.53;70.55;100619.04;1771228;79;23378;-77
2021/04/29 03:36:27;;;;;;;20.70;13.35;;;;;;;1.60;70.58;100622.27;1767201;79;21175;-77
2021/04/29 03:38:55;;;;;;;18.27;13.00;;;;;;;1.65;70.57;100621.66;1732362;81;21160;-77
2021/04/29 03:41:22;;;;;;;21.62;13.35;;;;;;;1.72;70.65;100625.23;1765846;80;21078;-77
2021/04/29 03:43:50;;;;;;;19.85;13.98;;;;;;;1.80;70.74;100623.64;1770067;80;21164;-78
2021/04/29 03:46:18;;;;;;;21.00;14.70;;;;;;;1.89;70.75;100628.48;1804277;79;22487;-79
2021/04/29 03:48:45;;;;;;;20.97;14.75;;;;;;;1.97;70.76;100619.92;1779975;80;21073;-78
2021/04/29 03:51:12;;;;;;;26.15;17.62;;;;;;;2.07;70.75;100629.97;1771240;79;21074;-78
2021/04/29 03:53:40;;;;;;;25.92;18.12;;;;;;;2.17;70.71;100626.93;1770674;79;21133;-77
2021/04/29 03:56:07;;;;;;;23.25;16.95;;;;;;;2.29;70.67;100627.72;1772368;79;21097;-73
2021/04/29 03:58:34;;;;;;;23.00;17.20;;;;;;;2.42;70.64;100630.69;1805815;78;22054;-75
2021/04/29 04:01:02;;;;;;;22.35;18.20;;;;;;;2.60;70.62;100627.73;1773841;79;21293;-75
2021/04/29 04:03:29;;;;;;;24.92;18.00;;;;;;;2.77;70.52;100629.18;1726819;80;21185;-73
2021/04/29 04:05:57;;;;;;;23.07;17.75;;;;;;;2.94;70.45;100629.76;1784994;78;21441;-72
2021/04/29 04:08:24;;;;;;;26.40;18.90;;;;;;;3.11;70.34;100629.87;1769538;79;21136;-77
2021/04/29 04:10:53;;;;;;;27.65;18.73;;;;;;;3.31;70.31;100622.91;1768832;79;21354;-73
2021/04/29 04:13:22;;;;;;;27.32;19.35;;;;;;;3.53;70.31;100630.59;1797762;79;21741;-73
2021/04/29 04:15:49;;;;;;;26.80;19.40;;;;;;;3.77;70.30;100629.47;1797161;78;21381;-73
2021/04/29 04:18:16;;;;;;;28.60;19.75;;;;;;;4.00;70.43;100638.34;1793555;78;21230;-75
2021/04/29 04:20:44;;;;;;;27.52;19.48;;;;;;;4.26;70.42;100631.87;1785605;79;21062;-80
2021/04/29 04:23:12;;;;;;;28.75;19.30;;;;;;;4.51;70.27;100630.16;1755297;79;22435;-72
2021/04/29 04:25:40;;;;;;;28.95;19.20;;;;;;;4.78;70.22;100625.31;1779937;80;21128;-71
2021/04/29 04:28:08;;;;;;;29.92;19.25;;;;;;;5.11;70.20;100629.70;1792417;78;21133;-73
2021/04/29 04:30:35;;;;;;;26.93;18.00;;;;;;;5.38;70.13;100623.00;1797248;78;21038;-73
2021/04/29 04:33:04;;;;;;;29.07;19.67;;;;;;;5.66;69.99;100624.13;1807543;78;21109;-70
2021/04/29 04:35:32;;;;;;;24.18;18.20;;;;;;;5.93;69.86;100623.94;1800879;78;22059;-70
2021/04/29 04:38:00;;;;;;;22.52;16.65;;;;;;;6.18;69.70;100623.41;1792764;78;21223;-73
2021/04/29 04:40:28;;;;;;;21.00;14.20;;;;;;;6.43;69.63;100624.60;1768345;79;21134;-72
2021/04/29 04:42:55;;;;;;;20.40;13.95;;;;;;;6.68;69.63;100624.02;1766395;79;21757;-77
2021/04/29 04:45:24;;;;;;;18.92;15.03;;;;;;;6.89;69.46;100626.20;1762705;80;21158;-74
2021/04/29 04:47:52;;;;;;;17.00;12.95;;;;;;;7.09;69.42;100624.99;1791561;79;22611;-74
2021/04/29 04:50:20;;;;;;;18.57;13.55;;;;;;;7.26;69.08;100623.97;1805274;78;21118;-79
2021/04/29 04:52:48;;;;;;;20.40;13.22;;;;;;;7.43;68.80;100621.15;1810080;78;21183;-82
2021/04/29 04:55:15;;;;;;;20.82;14.10;;;;;;;7.59;68.71;100622.80;1741362;80;21184;-88
2021/04/29 04:57:43;;;;;;;19.07;14.05;;;;;;;7.72;68.44;100625.89;1802574;78;21168;-77
2021/04/29 05:00:12;;;;;;;18.82;14.03;;;;;;;7.86;68.22;100624.16;1817472;78;23060;-79
2021/04/29 05:02:39;;;;;;;22.02;13.15;;;;;;;7.98;68.09;100628.14;1785665;78;21147;-82
2021/04/29 05:05:09;;;;;;;14.53;12.07;;;;;;;8.12;67.76;100630.37;1794791;78;21139;-80
2021/04/29 05:07:36;;;;;;;18.87;13.32;;;;;;;8.22;67.21;100627.03;1800681;78;21156;-79
2021/04/29 05:10:05;;;;;;;13.30;11.78;;;;;;;8.30;67.05;100635.75;1803683;78;21081;-85
2021/04/29 05:12:32;;;;;;;18.27;12.30;;;;;;;8.35;67.11;100630.20;1816156;78;22060;-72
2021/04/29 05:15:00;;;;;;;13.68;10.53;;;;;;;8.38;67.13;100633.46;1791245;78;21615;-80
2021/04/29 05:17:27;;;;;;;12.35;10.40;;;;;;;8.41;66.69;100631.13;1800908;78;21129;-81
2021/04/29 05:19:55;;;;;;;11.20;9.40;;;;;;;8.44;66.54;100631.75;1809482;78;21115;-82
2021/04/29 05:22:22;;;;;;;11.85;9.80;;;;;;;8.46;66.41;100628.53;1758825;79;21086;-84
2021/04/29 05:24:50;;;;;;;14.05;9.68;;;;;;;8.49;66.47;100628.80;1777226;79;22176;-76
2021/04/29 05:27:17;;;;;;;14.50;10.55;;;;;;;8.51;66.49;100633.03;1804163;78;21173;-74
2021/04/29 05:29:45;;;;;;;14.13;9.70;;;;;;;8.54;66.12;100638.09;1798150;78;21053;-82
2021/04/29 05:32:12;;;;;;;12.40;9.08;;;;;;;8.60;66.04;100632.90;1768570;79;21070;-78
2021/04/29 05:34:41;;;;;;;10.32;8.43;;;;;;;8.65;66.00;100636.52;1802761;78;21123;-77
2021/04/29 05:37:14;;;;;;;11.33;8.78;;;;;;;8.67;65.42;100639.89;1803076;78;22036;-81
2021/04/29 05:39:46;;;;;;;13.03;9.23;;;;;;;8.67;65.20;100636.78;1781008;79;21066;-80
2021/04/29 05:42:15;;;;;;;10.30;8.83;;;;;;;8.71;64.78;100640.08;1767720;79;21097;-80
2021/04/29 05:44:44;;;;;;;13.45;8.30;;;;;;;8.74;64.30;100642.48;1785991;78;21472;-80
2021/04/29 05:47:11;;;;;;;13.03;9.60;;;;;;;8.78;64.10;100634.30;1770205;79;21222;-79
2021/04/29 05:49:42;;;;;;;12.43;9.25;;;;;;;8.83;63.66;100635.28;1750413;79;22005;-80
2021/04/29 05:52:10;;;;;;;11.50;9.43;;;;;;;8.87;63.23;100631.01;1795100;78;21493;-80
2021/04/29 05:54:38;;;;;;;12.80;9.93;;;;;;;8.94;62.76;100634.08;1788578;79;21116;-83
2021/04/29 05:57:06;;;;;;;14.05;9.05;;;;;;;8.99;62.09;100633.78;1778089;79;21055;-81
2021/04/29 05:59:35;;;;;;;13.10;8.90;;;;;;;9.04;61.85;100626.38;1789211;79;21054;-83
2021/04/29 06:02:02;;;;;;;14.20;8.73;;;;;;;9.10;61.50;100629.45;1746077;78;22046;-76
2021/04/29 06:04:32;;;;;;;12.55;7.97;;;;;;;9.18;60.56;100632.40;1747448;80;21530;-76
2021/04/29 06:06:59;;;;;;;11.45;7.50;;;;;;;9.23;59.34;100629.91;1814317;78;21109;-76
2021/04/29 06:09:28;;;;;;;10.05;7.83;;;;;;;9.28;58.37;100633.92;1786918;79;21595;-76
2021/04/29 06:11:57;;;;;;;10.38;8.25;;;;;;;9.32;58.02;100635.38;1802380;79;21184;-78
2021/04/29 06:14:26;;;;;;;13.95;7.37;;;;;;;9.38;57.76;100634.13;1791418;78;23160;-78
2021/04/29 06:16:54;;;;;;;10.68;7.08;;;;;;;9.45;56.68;100637.98;1787018;78;21561;-76
2021/04/29 06:19:23;;;;;;;10.95;6.85;;;;;;;9.52;56.52;100640.56;1765612;79;21073;-76
2021/04/29 06:21:50;;;;;;;9.23;6.72;;;;;;;9.60;55.79;100634.75;1779834;80;21643;-79
2021/04/29 06:24:17;;;;;;;12.00;7.12;;;;;;;9.67;54.63;100643.45;1794614;78;21349;-80
2021/04/29 06:26:45;;;;;;;9.93;6.53;;;;;;;9.73;54.52;100644.31;1754162;80;23209;-73
2021/04/29 06:29:12;;;;;;;12.53;7.45;;;;;;;9.79;54.15;100639.56;1767154;79;21181;-76
2021/04/29 06:31:41;;;;;;;10.00;7.20;;;;;;;9.84;53.96;100636.94;1772038;79;21141;-78
2021/04/29 06:34:09;;;;;;;9.55;6.25;;;;;;;9.91;53.60;100638.67;1799373;78;21437;-79
2021/04/29 06:36:36;;;;;;;9.33;6.83;;;;;;;9.98;53.10;100630.68;1784657;78;21145;-72
2021/04/29 06:39:04;;;;;;;8.50;6.50;;;;;;;10.04;52.89;100635.52;1794643;78;22131;-80
2021/04/29 06:41:32;;;;;;;11.03;6.85;;;;;;;10.07;52.65;100636.61;1792421;78;21058;-80
2021/04/29 06:43:59;;;;;;;11.90;7.20;;;;;;;10.14;52.80;100637.02;1790701;79;22141;-77
2021/04/29 06:46:27;;;;;;;9.08;6.10;;;;;;;10.21;52.67;100635.11;1822183;78;21168;-81
2021/04/29 06:48:54;;;;;;;11.05;6.90;;;;;;;10.27;51.41;100636.02;1816230;78;21469;-80
2021/04/29 06:51:22;;;;;;;12.15;6.30;;;;;;;10.33;51.83;100633.41;1773942;80;22051;-83
2021/04/29 06:53:51;;;;;;;7.87;5.55;;;;;;;10.46;51.44;100638.13;1771827;79;21074;-80
2021/04/29 06:56:19;;;;;;;8.50;5.15;;;;;;;10.55;51.16;100640.56;1771666;80;21118;-82
2021/04/29 06:58:48;;;;;;;12.55;5.00;;;;;;;10.65;50.78;100640.23;1781263;80;21105;-75
2021/04/29 07:01:16;;;;;;;11.35;5.25;;;;;;;10.70;49.34;100642.52;1778580;78;21366;-78
2021/04/29 07:03:43;;;;;;;5.47;4.25;;;;;;;10.72;49.32;100647.23;1754232;80;22311;-76
2021/04/29 07:06:11;;;;;;;9.10;5.20;;;;;;;10.73;49.11;100644.47;1773881;80;21255;-82
2021/04/29 07:08:40;;;;;;;6.10;4.40;;;;;;;10.73;49.06;100648.43;1784919;78;21124;-76
2021/04/29 07:11:07;;;;;;;6.35;4.33;;;;;;;10.78;49.29;100655.99;1766531;79;21117;-73
2021/04/29 07:13:35;;;;;;;10.78;5.12;;;;;;;10.82;48.90;100656.14;1809408;78;21500;-79
2021/04/29 07:16:03;;;;;;;9.55;5.60;;;;;;;10.86;48.79;100653.62;1806162;78;22043;-77
2021/04/29 07:18:32;;;;;;;14.58;6.45;;;;;;;10.86;48.60;100663.70;1792707;78;21143;-79
2021/04/29 07:21:01;;;;;;;14.93;6.72;;;;;;;10.89;48.86;100655.53;1766719;79;20900;-79
2021/04/29 07:23:28;;;;;;;14.45;5.70;;;;;;;10.97;48.89;100647.50;1760569;79;21230;-83
2021/04/29 07:25:56;;;;;;;11.78;5.00;;;;;;;11.06;48.86;100647.64;1764897;80;21628;-80
2021/04/29 07:28:24;;;;;;;7.17;4.62;;;;;;;11.16;48.72;100646.45;1767093;79;22052;-81
2021/04/29 07:30:52;;;;;;;8.55;4.28;;;;;;;11.27;48.36;100647.77;1779175;80;21085;-81
2021/04/29 07:33:19;;;;;;;8.00;4.20;;;;;;;11.36;48.48;100648.38;1775140;79;21112;-80
2021/04/29 07:35:48;;;;;;;15.90;5.90;;;;;;;11.42;47.74;100649.23;1757017;80;21120;-81
2021/04/29 07:38:16;;;;;;;16.60;7.55;;;;;;;11.45;47.43;100650.31;1797390;78;21146;-78
2021/04/29 07:40:43;;;;;;;20.97;9.40;;;;;;;11.50;47.30;100646.48;1779064;79;21485;-77
2021/04/29 07:43:13;;;;;;;12.80;6.92;;;;;;;11.49;47.04;100648.77;1746734;80;21061;-76
2021/04/29 07:45:40;;;;;;;14.63;8.20;;;;;;;11.54;47.32;100642.61;1798614;78;21113;-76
2021/04/29 07:48:08;;;;;;;28.00;9.70;;;;;;;11.59;47.07;100647.91;1807674;78;21128;-75
2021/04/29 07:50:38;;;;;;;22.10;8.85;;;;;;;11.67;47.73;100648.12;1824871;78;21152;-78
2021/04/29 07:53:05;;;;;;;25.57;10.45;;;;;;;11.79;46.74;100648.97;1779464;79;23375;-77
2021/04/29 07:55:33;;;;;;;28.42;9.33;;;;;;;11.86;46.68;100655.47;1776250;80;21121;-76
2021/04/29 07:58:01;;;;;;;20.82;9.08;;;;;;;11.94;46.94;100658.83;1781976;79;21410;-76
2021/04/29 08:00:30;;;;;;;18.45;8.93;;;;;;;12.05;46.40;100653.50;1802697;79;21133;-79
2021/04/29 08:02:58;;;;;;;18.02;8.08;;;;;;;12.14;46.39;100651.91;1799477;79;21102;-77
2021/04/29 08:05:25;;;;;;;19.23;8.33;;;;;;;12.23;45.71;100645.87;1807427;78;22053;-78
2021/04/29 08:07:53;;;;;;;10.63;6.15;;;;;;;12.37;46.01;100654.86;1776230;79;21493;-76
2021/04/29 08:10:21;;;;;;;14.58;6.67;;;;;;;12.53;44.80;100653.09;1760535;79;21579;-76
2021/04/29 08:12:48;;;;;;;8.43;5.60;;;;;;;12.65;44.34;100648.60;1758650;80;21616;-78
2021/04/29 08:15:17;;;;;;;13.43;5.55;;;;;;;12.72;43.12;100643.12;1763222;79;21238;-76
2021/04/29 08:17:45;;;;;;;11.15;5.70;;;;;;;12.74;44.01;100643.37;1747693;80;22610;-78
2021/04/29 08:20:14;;;;;;;8.18;5.17;;;;;;;12.78;43.56;100643.94;1794133;79;21075;-77
2021/04/29 08:22:41;;;;;;;7.65;4.50;;;;;;;12.82;43.18;100642.70;1791531;79;21070;-79
2021/04/29 08:25:11;;;;;;;9.63;5.67;;;;;;;12.84;43.74;100639.45;1783912;79;21130;-77
2021/04/29 08:27:40;;;;;;;10.25;5.58;;;;;;;12.94;43.85;100627.09;1773162;79;21112;-77
2021/04/29 08:30:09;;;;;;;7.35;5.28;;;;;;;13.02;43.64;100630.39;1818532;78;22058;-77
2021/04/29 08:32:36;;;;;;;6.58;4.85;;;;;;;13.06;44.08;100623.87;1799488;78;21053;-81
2021/04/29 08:35:05;;;;;;;6.05;3.75;;;;;;;13.15;43.08;100614.64;1800142;78;21065;-80
2021/04/29 08:37:32;;;;;;;7.47;3.42;;;;;;;13.25;42.37;100613.39;1780383;79;21108;-78
2021/04/29 08:39:59;;;;;;;6.70;3.85;;;;;;;13.35;42.56;100607.64;1799037;78;21552;-78
2021/04/29 08:42:28;;;;;;;5.30;3.08;;;;;;;13.52;41.98;100617.27;1812186;78;22500;-79
2021/04/29 08:44:56;;;;;;;4.78;3.40;;;;;;;13.61;42.47;100609.83;1804431;78;21164;-79
2021/04/29 08:47:24;;;;;;;6.33;3.30;;;;;;;13.68;42.59;100610.94;1763111;78;21061;-77
2021/04/29 08:49:54;;;;;;;4.42;3.47;;;;;;;13.75;42.48;100601.47;1765755;79;21041;-77
2021/04/29 08:52:23;;;;;;;6.92;3.67;;;;;;;13.78;42.15;100600.34;1809332;78;21140;-78
2021/04/29 08:54:51;;;;;;;6.37;3.50;;;;;;;13.75;42.71;100606.28;1764057;80;22109;-76
2021/04/29 08:57:18;;;;;;;4.62;3.40;;;;;;;13.75;41.81;100598.33;1768308;80;21209;-74
2021/04/29 08:59:46;;;;;;;7.80;4.08;;;;;;;13.81;41.96;100592.97;1788856;80;21485;-74
2021/04/29 09:02:14;;;;;;;4.90;3.15;;;;;;;13.93;43.15;100581.23;1802968;78;21050;-77
2021/04/29 09:04:43;;;;;;;6.25;3.10;;;;;;;14.16;43.10;100581.80;1803369;78;21089;-76
2021/04/29 09:07:15;;;;;;;4.40;2.85;;;;;;;14.35;42.12;100579.63;1797772;78;22077;-78
2021/04/29 09:09:50;;;;;;;5.37;3.22;;;;;;;14.43;42.02;100577.11;1857886;75;23315;-79
2021/04/29 09:12:19;;;;;;;5.28;3.02;;;;;;;14.44;41.23;100572.63;1823561;78;21052;-78
2021/04/29 09:14:49;;;;;;;4.62;2.90;;;;;;;14.44;41.52;100571.30;1818589;78;22044;-79
2021/04/29 09:17:22;;;;;;;4.67;2.77;;;;;;;14.42;41.70;100565.30;1810222;78;21115;-78
2021/04/29 09:19:53;;;;;;;4.30;2.80;;;;;;;14.50;41.97;100563.64;1816575;78;21076;-77
2021/04/29 09:22:21;;;;;;;4.50;2.47;;;;;;;14.69;41.58;100570.73;1816240;78;21574;-79
2021/04/29 09:24:49;;;;;;;6.85;2.85;;;;;;;14.81;41.22;100558.11;1813405;78;21048;-81
2021/04/29 09:27:20;;;;;;;5.10;3.10;;;;;;;14.78;40.15;100555.75;1812355;78;21865;-77
2021/04/29 09:29:55;;;;;;;5.83;2.60;;;;;;;14.74;42.10;100549.86;1802570;79;21491;-77
2021/04/29 09:32:35;;;;;;;3.45;2.50;;;;;;;14.87;41.21;100549.56;1786705;79;21168;-75
2021/04/29 09:35:07;;;;;;;4.60;2.40;;;;;;;15.01;42.13;100553.56;1799939;79;21095;-73
2021/04/29 09:37:40;;;;;;;3.98;2.30;;;;;;;15.14;40.56;100546.07;1800970;78;21581;-75
2021/04/29 09:40:20;;;;;;;5.40;2.67;;;;;;;15.23;37.85;100548.34;1790783;79;22049;-71
2021/04/29 09:42:49;;;;;;;4.92;2.00;;;;;;;15.22;40.35;100540.86;1791364;79;21089;-78
2021/04/29 09:45:28;;;;;;;4.08;2.40;;;;;;;15.38;39.20;100537.07;1792126;79;21105;-78
2021/04/29 09:48:01;;;;;;;7.62;3.83;;;;;;;15.54;40.23;100541.75;1797536;79;21442;-76
2021/04/29 09:50:35;;;;;;;5.92;2.37;;;;;;;15.87;40.35;100538.11;1757254;80;21142;-80
2021/04/29 09:53:11;;;;;;;2.67;2.05;;;;;;;16.05;36.79;100532.79;1730415;80;22136;-76
2021/04/29 09:55:45;;;;;;;4.08;3.47;;;;;;;16.00;36.74;100526.07;1720077;81;21569;-80
2021/04/29 09:58:16;;;;;;;4.15;2.62;;;;;;;15.97;38.31;100526.89;1759205;79;21203;-76
2021/04/29 10:00:47;;;;;;;3.50;2.20;;;;;;;16.08;39.24;100531.14;1746696;80;21567;-74
2021/04/29 10:03:15;;;;;;;2.67;1.87;;;;;;;16.11;38.26;100522.83;1760824;80;21162;-76
2021/04/29 10:05:43;;;;;;;6.00;2.00;;;;;;;16.08;37.67;100523.98;1740473;80;22966;-78
2021/04/29 10:08:13;;;;;;;3.30;2.40;;;;;;;16.19;38.41;100514.91;1743381;80;21211;-76
2021/04/29 10:10:45;;;;;;;3.85;2.50;;;;;;;16.39;38.40;100507.06;1738665;81;21084;-78
2021/04/29 10:13:12;;;;;;;4.42;2.08;;;;;;;16.62;38.80;100500.73;1735476;81;21164;-79
2021/04/29 10:15:43;;;;;;;2.92;1.92;;;;;;;16.76;36.44;100496.66;1744562;81;21444;-78
2021/04/29 10:18:12;;;;;;;3.98;1.80;;;;;;;16.71;36.89;100498.48;1741844;81;22072;-80
2021/04/29 10:20:44;;;;;;;3.12;2.33;;;;;;;16.69;37.38;100499.11;1745487;80;21164;-86
2021/04/29 10:23:12;;;;;;;4.25;2.92;;;;;;;16.72;36.22;100484.64;1750128;80;21125;-78
2021/04/29 10:25:39;;;;;;;6.62;3.15;;;;;;;16.75;37.07;100477.65;1748313;82;22423;-78
2021/04/29 10:28:06;;;;;;;5.80;3.08;;;;;;;16.92;37.79;100482.57;1716711;82;21546;-78
2021/04/29 10:30:38;;;;;;;8.13;5.80;;;;;;;17.13;38.81;100494.49;1735445;82;22055;-75
2021/04/29 10:33:18;;;;;;;6.75;4.72;;;;;;;17.34;39.47;100487.88;1744301;80;21156;-75
2021/04/29 10:36:00;;;;;;;5.67;3.50;;;;;;;17.30;40.10;100485.22;1752071;81;21147;-73
2021/04/29 10:38:32;;;;;;;5.95;2.80;;;;;;;17.41;40.98;100479.56;1739131;81;21163;-78
2021/04/29 10:41:21;;;;;;;6.92;2.60;;;;;;;17.79;38.65;100471.98;1737677;80;21070;-82
2021/04/29 10:43:50;;;;;;;6.72;4.37;;;;;;;18.01;36.35;100478.82;1725214;82;23009;-78
2021/04/29 10:46:32;;;;;;;9.50;4.75;;;;;;;18.05;37.70;100473.13;1725349;81;21075;-77
2021/04/29 10:49:00;;;;;;;9.88;4.78;;;;;;;17.83;38.28;100467.96;1733878;82;21061;-85
2021/04/29 10:51:37;;;;;;;6.72;4.45;;;;;;;17.54;38.96;100463.06;1733789;82;21129;-74
2021/04/29 10:54:12;;;;;;;5.60;3.52;;;;;;;17.37;39.46;100457.70;1767480;80;21024;-71
2021/04/29 10:56:40;;;;;;;6.70;3.90;;;;;;;17.31;39.99;100462.86;1763090;80;22127;-74
2021/04/29 10:59:10;;;;;;;6.87;3.85;;;;;;;17.35;39.78;100456.17;1750629;80;21073;-76
2021/04/29 11:01:43;;;;;;;7.10;4.10;;;;;;;17.49;38.90;100456.05;1743818;81;21208;-70
2021/04/29 11:04:20;;;;;;;7.60;4.03;;;;;;;17.79;38.53;100446.59;1753190;81;21072;-73
2021/04/29 11:06:48;;;;;;;9.33;4.40;;;;;;;17.79;38.53;100446.59;1770924;79;21075;-73
2021/04/29 11:09:22;;;;;;;16.20;5.05;;;;;;;17.63;39.70;100454.06;1754580;81;22078;-77
2021/04/29 11:12:05;;;;;;;9.45;4.08;;;;;;;17.70;40.19;100445.25;1758579;80;21052;-75
2021/04/29 11:14:43;;;;;;;8.73;3.87;;;;;;;17.90;38.96;100444.92;1768064;79;21140;-75
2021/04/29 11:17:21;;;;;;;11.15;3.85;;;;;;;18.05;38.76;100434.38;1760488;80;21076;-74
2021/04/29 11:19:57;;;;;;;7.45;3.50;;;;;;;18.10;38.61;100433.38;1729076;81;21531;-73
2021/04/29 11:22:34;;;;;;;7.70;3.87;;;;;;;18.25;37.76;100435.71;1740841;81;22064;-74
2021/04/29 11:25:01;;;;;;;7.40;3.47;;;;;;;18.35;38.01;100432.35;1733481;81;21080;-71
2021/04/29 11:27:34;;;;;;;9.40;3.55;;;;;;;18.55;37.78;100426.11;1732634;81;21128;-72
2021/04/29 11:30:08;;;;;;;5.30;3.10;;;;;;;18.71;37.16;100438.10;1734607;81;21045;-73
2021/04/29 11:32:37;;;;;;;8.85;3.20;;;;;;;18.80;35.60;100433.05;1755709;80;21601;-72